createdAt,value
2022-07-27T00:01:51.441Z,62.10
2022-07-27T00:04:36.629Z,61.90
2022-07-27T00:07:22.310Z,61.80
2022-07-27T00:10:08.061Z,62.10
2022-07-27T00:12:53.097Z,62.00
2022-07-27T00:15:38.614Z,61.90
2022-07-27T00:18:24.374Z,62.00
2022-07-27T00:21:09.854Z,61.80
2022-07-27T00:23:55.345Z,61.40
2022-07-27T00:26:40.933Z,61.40
2022-07-27T00:29:26.386Z,61.30
2022-07-27T00:32:12.830Z,61.50
2022-07-27T00:34:58.001Z,61.50
2022-07-27T00:37:43.268Z,61.90
2022-07-27T00:40:28.761Z,61.50
2022-07-27T00:43:14.115Z,61.60
2022-07-27T00:45:59.641Z,61.80
2022-07-27T00:48:50.751Z,61.90
2022-07-27T00:51:36.341Z,62.00
2022-07-27T00:54:22.559Z,61.80
2022-07-27T00:57:10.780Z,61.90
2022-07-27T00:59:56.196Z,62.10
2022-07-27T01:02:46.406Z,62.20
2022-07-27T01:05:36.590Z,62.40
2022-07-27T01:08:23.364Z,62.70
2022-07-27T01:11:09.061Z,63.10
2022-07-27T01:13:54.235Z,63.70
2022-07-27T01:16:39.972Z,63.10
2022-07-27T01:19:25.278Z,63.40
2022-07-27T01:22:11.812Z,63.40
2022-07-27T01:24:57.351Z,63.70
2022-07-27T01:27:42.651Z,63.70
2022-07-27T01:30:29.686Z,64.20
2022-07-27T01:33:15.000Z,64.40
2022-07-27T01:36:00.442Z,64.70
2022-07-27T01:38:46.472Z,65.10
2022-07-27T01:41:31.842Z,65.40
2022-07-27T01:44:17.113Z,66.00
2022-07-27T01:47:02.386Z,66.40
2022-07-27T01:49:59.745Z,66.90
2022-07-27T01:52:45.254Z,66.70
2022-07-27T01:55:38.607Z,66.50
2022-07-27T01:58:23.990Z,66.60
2022-07-27T02:01:10.302Z,66.60
2022-07-27T02:03:55.287Z,66.90
2022-07-27T02:06:40.692Z,67.00
2022-07-27T02:09:26.030Z,67.40
2022-07-27T02:12:29.976Z,67.70
2022-07-27T02:15:19.212Z,67.80
2022-07-27T02:18:04.644Z,68.20
2022-07-27T02:21:10.660Z,68.50
2022-07-27T02:23:55.803Z,68.60
2022-07-27T02:26:41.252Z,68.70
2022-07-27T02:29:26.445Z,68.80
2022-07-27T02:32:11.868Z,68.90
2022-07-27T02:34:57.482Z,69.20
2022-07-27T02:37:42.730Z,69.20
2022-07-27T02:40:28.049Z,69.40
2022-07-27T02:43:13.972Z,69.20
2022-07-27T02:45:59.199Z,69.20
2022-07-27T02:48:44.727Z,69.50
2022-07-27T02:51:29.938Z,70.10
2022-07-27T02:54:15.441Z,70.10
2022-07-27T02:57:05.001Z,70.60
2022-07-27T02:59:50.657Z,70.60
2022-07-27T03:02:36.552Z,70.80
2022-07-27T03:05:21.839Z,71.20
2022-07-27T03:08:07.323Z,71.50
2022-07-27T03:10:52.661Z,71.80
2022-07-27T03:13:38.017Z,72.10
2022-07-27T03:16:23.688Z,71.90
2022-07-27T03:19:09.193Z,71.70
2022-07-27T03:21:54.817Z,71.80
2022-07-27T03:24:40.487Z,71.90
2022-07-27T03:27:26.023Z,71.80
2022-07-27T03:30:11.406Z,71.90
2022-07-27T03:32:56.585Z,72.10
2022-07-27T03:35:41.826Z,72.00
2022-07-27T03:38:27.201Z,72.50
2022-07-27T03:41:12.552Z,72.40
2022-07-27T03:43:58.006Z,72.90
2022-07-27T03:46:43.370Z,73.30
2022-07-27T03:49:28.702Z,73.30
2022-07-27T03:52:17.669Z,73.60
2022-07-27T03:55:03.976Z,73.80
2022-07-27T03:57:50.809Z,74.40
2022-07-27T04:00:36.418Z,75.30
2022-07-27T04:03:21.947Z,75.90
2022-07-27T04:06:07.360Z,76.90
2022-07-27T04:08:57.525Z,77.00
2022-07-27T04:11:51.054Z,77.50
2022-07-27T04:14:36.659Z,77.90
2022-07-27T04:17:56.164Z,77.90
2022-07-27T04:20:27.727Z,78.10
2022-07-27T04:23:12.859Z,77.60
2022-07-27T04:25:58.889Z,77.70
2022-07-27T04:28:44.322Z,77.90
2022-07-27T04:31:29.579Z,77.80
2022-07-27T04:34:15.043Z,77.80
2022-07-27T04:37:00.364Z,77.90
2022-07-27T04:39:45.691Z,77.70
2022-07-27T04:42:31.244Z,77.80
2022-07-27T04:45:16.499Z,77.60
2022-07-27T04:48:09.156Z,77.40
2022-07-27T04:50:54.494Z,74.00
2022-07-27T04:53:53.556Z,75.00
2022-07-27T04:56:43.798Z,74.90
2022-07-27T04:59:29.017Z,75.00
2022-07-27T05:02:14.234Z,75.20
2022-07-27T05:05:00.501Z,75.60
2022-07-27T05:07:45.879Z,75.30
2022-07-27T05:10:31.318Z,75.40
2022-07-27T05:13:17.291Z,75.80
2022-07-27T05:16:02.658Z,76.10
2022-07-27T05:18:48.143Z,76.40
2022-07-27T05:21:33.510Z,76.70
2022-07-27T05:24:18.931Z,76.60
2022-07-27T05:27:05.953Z,76.60
2022-07-27T05:29:50.987Z,76.10
2022-07-27T05:32:37.653Z,76.20
2022-07-27T05:35:22.837Z,76.60
2022-07-27T05:38:08.202Z,76.40
2022-07-27T05:40:53.622Z,76.10
2022-07-27T05:43:38.966Z,76.60
2022-07-27T05:46:25.629Z,76.90
2022-07-27T05:49:13.296Z,77.10
2022-07-27T05:51:58.806Z,77.00
2022-07-27T05:54:44.712Z,76.90
2022-07-27T05:57:30.187Z,77.00
2022-07-27T06:00:15.673Z,77.10
2022-07-27T06:03:01.194Z,77.10
2022-07-27T06:05:46.410Z,77.00
2022-07-27T06:08:32.706Z,76.90
2022-07-27T06:11:17.886Z,76.50
2022-07-27T06:14:03.133Z,76.30
2022-07-27T06:16:48.687Z,76.60
2022-07-27T06:19:35.968Z,77.10
2022-07-27T06:22:22.125Z,77.80
2022-07-27T06:25:07.967Z,78.00
2022-07-27T06:27:53.409Z,77.90
2022-07-27T06:30:39.282Z,77.90
2022-07-27T06:33:31.656Z,78.00
2022-07-27T06:36:16.670Z,78.10
2022-07-27T06:39:02.047Z,78.50
2022-07-27T06:41:47.511Z,78.90
2022-07-27T06:44:32.787Z,78.60
2022-07-27T06:47:18.411Z,79.70
2022-07-27T06:50:05.094Z,81.90
2022-07-27T06:52:50.675Z,84.50
2022-07-27T06:55:35.994Z,86.00
2022-07-27T06:58:21.343Z,87.50
2022-07-27T07:01:06.829Z,88.20
2022-07-27T07:03:52.285Z,88.60
2022-07-27T07:06:37.568Z,88.90
2022-07-27T07:09:22.959Z,90.10
2022-07-27T07:12:08.559Z,90.10
2022-07-27T07:14:53.823Z,90.20
2022-07-27T07:17:40.352Z,90.60
2022-07-27T07:20:25.546Z,90.50
2022-07-27T07:23:11.436Z,90.70
2022-07-27T07:25:56.768Z,90.90
2022-07-27T07:28:42.585Z,90.60
2022-07-27T07:31:28.155Z,91.30
2022-07-27T07:34:13.411Z,91.20
2022-07-27T07:36:58.659Z,91.70
2022-07-27T07:39:44.106Z,91.30
2022-07-27T07:42:29.623Z,91.90
2022-07-27T07:45:15.944Z,91.70
2022-07-27T07:48:01.495Z,91.70
2022-07-27T07:50:51.966Z,92.90
2022-07-27T07:53:41.790Z,92.30
2022-07-27T07:56:27.415Z,92.10
2022-07-27T07:59:12.976Z,92.00
2022-07-27T08:01:58.968Z,90.80
2022-07-27T08:04:44.155Z,91.00
2022-07-27T08:07:29.661Z,91.30
2022-07-27T08:10:16.154Z,90.80
2022-07-27T08:13:01.416Z,90.50
2022-07-27T08:15:46.892Z,89.90
2022-07-27T08:18:32.525Z,89.60
2022-07-27T08:21:18.142Z,89.30
2022-07-27T08:24:03.901Z,88.70
2022-07-27T08:26:48.911Z,88.40
2022-07-27T08:29:36.609Z,88.90
2022-07-27T08:32:22.635Z,90.00
2022-07-27T08:35:08.137Z,90.00
2022-07-27T08:37:53.920Z,90.30
2022-07-27T08:40:43.660Z,89.20
2022-07-27T08:43:31.826Z,87.40
2022-07-27T08:46:18.620Z,87.20
2022-07-27T08:49:04.609Z,87.20
2022-07-27T08:51:50.664Z,87.40
2022-07-27T08:54:39.506Z,86.80
2022-07-27T08:57:24.763Z,86.50
2022-07-27T09:00:12.136Z,86.40
2022-07-27T09:02:57.882Z,85.40
2022-07-27T09:05:45.490Z,85.60
2022-07-27T09:08:33.540Z,83.40
2022-07-27T09:11:20.011Z,85.00
2022-07-27T09:14:08.102Z,85.00
2022-07-27T09:17:44.564Z,84.20
2022-07-27T09:20:08.024Z,85.40
2022-07-27T09:22:55.413Z,83.40
2022-07-27T09:26:02.871Z,84.10
2022-07-27T09:28:46.687Z,84.00
2022-07-27T09:31:33.291Z,84.30
2022-07-27T09:34:34.138Z,83.50
2022-07-27T09:37:27.939Z,83.60
2022-07-27T09:40:25.514Z,83.30
2022-07-27T09:44:12.257Z,81.70
2022-07-27T09:46:34.427Z,81.70
2022-07-27T09:49:34.357Z,80.10
2022-07-27T09:52:28.142Z,80.70
2022-07-27T09:55:14.230Z,80.40
2022-07-27T09:57:59.510Z,79.70
2022-07-27T10:00:57.616Z,78.60
2022-07-27T10:03:44.909Z,79.40
2022-07-27T10:06:38.958Z,79.90
2022-07-27T10:09:34.780Z,78.90
2022-07-27T10:12:20.201Z,79.10
2022-07-27T10:15:10.067Z,77.70
2022-07-27T10:18:07.871Z,77.80
2022-07-27T10:20:53.694Z,77.00
2022-07-27T10:23:39.327Z,76.80
2022-07-27T10:26:24.707Z,76.00
2022-07-27T10:29:20.728Z,75.30
2022-07-27T10:32:08.826Z,74.80
2022-07-27T10:34:54.363Z,75.30
2022-07-27T10:37:39.747Z,74.90
2022-07-27T10:40:34.441Z,71.80
2022-07-27T10:43:21.717Z,71.00
2022-07-27T10:46:07.150Z,72.20
2022-07-27T10:48:52.464Z,71.60
2022-07-27T10:51:38.171Z,70.10
2022-07-27T10:54:35.301Z,70.50
2022-07-27T10:57:26.914Z,70.30
2022-07-27T11:00:19.474Z,70.10
2022-07-27T11:03:05.875Z,67.60
2022-07-27T11:06:36.305Z,68.60
2022-07-27T11:12:48.722Z,65.30
2022-07-27T11:15:33.735Z,64.60
2022-07-27T11:18:28.367Z,64.50
2022-07-27T11:21:26.731Z,63.10
2022-07-27T11:24:19.611Z,62.60
2022-07-27T11:27:16.859Z,61.80
2022-07-27T11:30:02.773Z,61.80
2022-07-27T11:32:48.977Z,61.70
2022-07-27T11:35:34.236Z,61.20
2022-07-27T11:38:19.552Z,60.10
2022-07-27T11:41:15.351Z,60.10
2022-07-27T11:44:19.490Z,59.70
2022-07-27T11:47:05.363Z,58.70
2022-07-27T11:49:50.521Z,57.60
2022-07-27T11:52:35.871Z,57.10
2022-07-27T11:55:21.226Z,56.10
2022-07-27T11:58:06.551Z,55.50
2022-07-27T12:00:51.878Z,55.90
2022-07-27T12:03:45.997Z,55.00
2022-07-27T12:06:34.963Z,55.70
2022-07-27T12:09:21.157Z,54.50
2022-07-27T12:12:17.933Z,54.60
2022-07-27T12:15:44.783Z,54.40
2022-07-27T12:18:20.774Z,54.80
2022-07-27T12:21:19.162Z,54.40
2022-07-27T12:24:04.740Z,54.90
2022-07-27T12:27:14.327Z,54.30
2022-07-27T12:30:05.372Z,53.00
2022-07-27T12:32:55.355Z,52.80
2022-07-27T12:35:47.106Z,51.00
2022-07-27T12:38:43.678Z,53.10
2022-07-27T12:41:32.479Z,53.10
2022-07-27T12:44:17.736Z,53.20
2022-07-27T12:47:27.611Z,51.60
2022-07-27T12:50:15.721Z,51.50
2022-07-27T12:53:01.353Z,51.50
2022-07-27T12:55:47.154Z,52.30
2022-07-27T12:58:32.942Z,52.40
2022-07-27T13:01:18.197Z,52.50
2022-07-27T13:04:03.596Z,52.50
2022-07-27T13:06:49.285Z,52.00
2022-07-27T13:10:01.992Z,52.60
2022-07-27T13:12:42.067Z,52.50
2022-07-27T13:15:27.229Z,53.30
2022-07-27T13:18:12.815Z,52.40
2022-07-27T13:20:58.375Z,52.00
2022-07-27T13:23:43.779Z,52.20
2022-07-27T13:26:29.017Z,52.10
2022-07-27T13:29:14.914Z,51.10
2022-07-27T13:32:00.944Z,50.60
2022-07-27T13:34:46.193Z,51.00
2022-07-27T13:37:31.791Z,49.30
2022-07-27T13:40:17.189Z,49.70
2022-07-27T13:43:02.554Z,49.30
2022-07-27T13:45:54.493Z,48.70
2022-07-27T13:48:40.063Z,50.10
2022-07-27T13:51:25.322Z,49.40
2022-07-27T13:54:11.905Z,48.90
2022-07-27T13:56:57.385Z,48.30
2022-07-27T13:59:43.178Z,47.00
2022-07-27T14:02:28.622Z,48.70
2022-07-27T14:05:15.925Z,48.00
2022-07-27T14:08:04.346Z,48.30
2022-07-27T14:10:51.156Z,47.80
2022-07-27T14:13:36.906Z,46.60
2022-07-27T14:16:22.592Z,46.50
2022-07-27T14:19:12.489Z,45.60
2022-07-27T14:21:58.392Z,46.40
2022-07-27T14:24:44.245Z,45.60
2022-07-27T14:27:36.582Z,46.40
2022-07-27T14:30:24.496Z,46.30
2022-07-27T14:33:09.738Z,45.30
2022-07-27T14:35:56.110Z,46.20
2022-07-27T14:38:44.155Z,46.00
2022-07-27T14:41:30.329Z,45.80
2022-07-27T14:44:15.426Z,45.00
2022-07-27T14:47:04.399Z,44.60
2022-07-27T14:49:50.132Z,45.80
2022-07-27T14:52:36.173Z,44.30
2022-07-27T14:55:21.569Z,44.60
2022-07-27T14:58:07.157Z,44.90
2022-07-27T15:00:52.870Z,44.60
2022-07-27T15:03:38.529Z,45.10
2022-07-27T15:06:23.958Z,44.90
2022-07-27T15:09:09.562Z,45.70
2022-07-27T15:11:54.940Z,45.00
2022-07-27T15:14:40.036Z,44.70
2022-07-27T15:17:25.435Z,44.00
2022-07-27T15:20:11.636Z,43.50
2022-07-27T15:22:57.286Z,44.10
2022-07-27T15:25:42.843Z,43.70
2022-07-27T15:28:28.247Z,43.10
2022-07-27T15:31:13.915Z,44.50
2022-07-27T15:33:59.448Z,45.30
2022-07-27T15:36:50.061Z,44.90
2022-07-27T15:39:39.306Z,44.50
2022-07-27T15:42:25.241Z,44.20
2022-07-27T15:45:10.943Z,44.70
2022-07-27T15:47:56.503Z,44.50
2022-07-27T15:50:48.248Z,44.80
2022-07-27T15:53:41.563Z,45.40
2022-07-27T15:56:33.491Z,44.20
2022-07-27T15:59:20.104Z,44.20
2022-07-27T16:02:14.793Z,45.20
2022-07-27T16:05:03.554Z,45.10
2022-07-27T16:08:04.394Z,44.20
2022-07-27T16:10:53.437Z,44.70
2022-07-27T16:13:43.032Z,44.30
2022-07-27T16:16:31.667Z,44.10
2022-07-27T16:19:17.256Z,44.00
2022-07-27T16:22:03.741Z,44.40
2022-07-27T16:24:48.980Z,44.60
2022-07-27T16:27:34.686Z,43.70
2022-07-27T16:30:20.941Z,43.70
2022-07-27T16:33:06.660Z,44.30
2022-07-27T16:35:52.319Z,43.60
2022-07-27T16:38:49.475Z,43.50
2022-07-27T16:41:35.336Z,44.20
2022-07-27T16:44:21.249Z,43.40
2022-07-27T16:47:06.852Z,42.90
2022-07-27T16:49:52.249Z,43.40
2022-07-27T16:52:37.613Z,43.60
2022-07-27T16:55:23.728Z,43.00
2022-07-27T16:58:13.417Z,43.40
2022-07-27T17:00:58.772Z,43.80
2022-07-27T17:03:47.899Z,43.80
2022-07-27T17:06:35.123Z,43.70
2022-07-27T17:09:20.485Z,43.80
2022-07-27T17:12:05.786Z,44.10
2022-07-27T17:14:51.764Z,44.10
2022-07-27T17:17:37.181Z,44.20
2022-07-27T17:20:31.511Z,44.40
2022-07-27T17:23:20.623Z,44.20
2022-07-27T17:26:07.315Z,44.40
2022-07-27T17:28:53.158Z,44.50
2022-07-27T17:31:38.616Z,44.50
2022-07-27T17:34:23.913Z,44.90
2022-07-27T17:37:09.214Z,45.60
2022-07-27T17:39:54.606Z,45.50
2022-07-27T17:42:40.250Z,45.80
2022-07-27T17:45:26.511Z,45.80
2022-07-27T17:48:11.797Z,46.00
2022-07-27T17:50:57.329Z,46.20
2022-07-27T17:53:43.537Z,46.30
2022-07-27T17:56:28.989Z,46.40
2022-07-27T17:59:36.530Z,46.20
2022-07-27T18:02:20.570Z,46.80
2022-07-27T18:05:06.487Z,46.80
2022-07-27T18:07:53.343Z,46.90
2022-07-27T18:10:38.893Z,46.70
2022-07-27T18:13:39.456Z,47.40
2022-07-27T18:16:25.207Z,47.40
2022-07-27T18:19:10.715Z,47.60
2022-07-27T18:21:56.354Z,47.50
2022-07-27T18:24:41.827Z,47.60
2022-07-27T18:27:28.910Z,47.60
2022-07-27T18:30:14.064Z,47.50
2022-07-27T18:32:59.512Z,47.40
2022-07-27T18:35:46.140Z,47.90
2022-07-27T18:38:31.325Z,48.00
2022-07-27T18:41:18.961Z,48.00
2022-07-27T18:44:04.313Z,47.90
2022-07-27T18:46:49.384Z,48.10
2022-07-27T18:49:34.918Z,48.20
2022-07-27T18:52:20.186Z,48.50
2022-07-27T18:55:06.176Z,48.60
2022-07-27T18:57:55.889Z,49.40
2022-07-27T19:00:41.292Z,48.90
2022-07-27T19:03:27.765Z,49.00
2022-07-27T19:06:17.975Z,49.20
2022-07-27T19:09:04.873Z,49.50
2022-07-27T19:11:50.252Z,49.40
2022-07-27T19:14:35.807Z,49.00
2022-07-27T19:17:21.223Z,49.60
2022-07-27T19:20:09.177Z,49.60
2022-07-27T19:22:55.143Z,49.40
2022-07-27T19:25:43.464Z,49.60
2022-07-27T19:28:28.892Z,49.60
2022-07-27T19:31:22.691Z,50.00
2022-07-27T19:34:08.945Z,50.10
2022-07-27T19:36:54.351Z,50.10
2022-07-27T19:39:57.101Z,49.70
2022-07-27T19:42:45.310Z,50.10
2022-07-27T19:45:30.711Z,50.10
2022-07-27T19:48:16.239Z,50.40
2022-07-27T19:51:06.642Z,50.50
2022-07-27T19:53:52.471Z,50.50
2022-07-27T19:56:37.883Z,50.80
2022-07-27T19:59:23.138Z,51.10
2022-07-27T20:02:08.574Z,51.10
2022-07-27T20:04:54.153Z,51.20
2022-07-27T20:07:39.419Z,51.20
2022-07-27T20:10:25.398Z,51.30
2022-07-27T20:13:11.127Z,51.50
2022-07-27T20:15:56.249Z,51.50
2022-07-27T20:18:41.794Z,51.90
2022-07-27T20:21:27.155Z,52.30
2022-07-27T20:24:13.893Z,52.80
2022-07-27T20:26:59.031Z,52.50
2022-07-27T20:29:44.285Z,52.60
2022-07-27T20:32:30.284Z,53.00
2022-07-27T20:35:15.870Z,53.00
2022-07-27T20:38:01.394Z,53.20
2022-07-27T20:40:46.730Z,53.10
2022-07-27T20:43:32.473Z,53.20
2022-07-27T20:46:17.508Z,53.50
2022-07-27T20:49:02.889Z,53.60
2022-07-27T20:51:48.309Z,54.00
2022-07-27T20:54:35.459Z,54.40
2022-07-27T20:57:20.591Z,54.50
2022-07-27T21:00:07.614Z,54.20
2022-07-27T21:02:53.151Z,54.30
2022-07-27T21:05:38.686Z,54.40
2022-07-27T21:08:24.282Z,54.20
2022-07-27T21:11:10.227Z,54.50
2022-07-27T21:13:55.927Z,54.90
2022-07-27T21:16:41.678Z,54.90
2022-07-27T21:19:27.842Z,55.30
2022-07-27T21:22:13.537Z,55.20
2022-07-27T21:24:59.094Z,55.50
2022-07-27T21:27:45.763Z,55.60
2022-07-27T21:30:33.920Z,55.50
2022-07-27T21:33:19.588Z,55.60
2022-07-27T21:36:05.364Z,55.60
2022-07-27T21:38:50.565Z,55.70
2022-07-27T21:41:36.313Z,55.60
2022-07-27T21:44:22.250Z,55.70
2022-07-27T21:47:13.071Z,55.70
2022-07-27T21:49:59.401Z,55.80
2022-07-27T21:52:45.070Z,56.00
2022-07-27T21:55:30.535Z,55.90
2022-07-27T21:58:16.097Z,55.70
2022-07-27T22:01:01.299Z,55.50
2022-07-27T22:03:46.911Z,55.80
2022-07-27T22:06:32.448Z,55.90
2022-07-27T22:09:20.049Z,56.20
2022-07-27T22:12:05.250Z,56.20
2022-07-27T22:14:50.713Z,56.10
2022-07-27T22:17:36.062Z,55.90
2022-07-27T22:20:35.778Z,56.10
2022-07-27T22:23:20.784Z,56.30
2022-07-27T22:26:06.201Z,56.40
2022-07-27T22:28:51.184Z,56.40
2022-07-27T22:31:36.655Z,56.40
2022-07-27T22:34:21.981Z,56.80
2022-07-27T22:37:07.214Z,57.00
2022-07-27T22:39:52.635Z,57.80
2022-07-27T22:42:38.755Z,57.70
2022-07-27T22:45:23.854Z,58.00
2022-07-27T22:48:09.137Z,58.10
2022-07-27T22:50:54.402Z,58.40
2022-07-27T22:53:39.742Z,58.70
2022-07-27T22:56:24.966Z,58.80
2022-07-27T22:59:10.389Z,59.50
2022-07-27T23:01:55.655Z,59.60
2022-07-27T23:04:40.824Z,59.30
2022-07-27T23:07:26.301Z,59.30
2022-07-27T23:10:31.607Z,59.90
2022-07-27T23:13:18.685Z,60.10
2022-07-27T23:16:03.975Z,60.50
2022-07-27T23:18:49.264Z,60.20
2022-07-27T23:21:34.939Z,60.40
2022-07-27T23:24:29.317Z,60.90
2022-07-27T23:27:14.793Z,61.40
2022-07-27T23:30:00.153Z,61.10
2022-07-27T23:32:45.440Z,61.20
2022-07-27T23:35:31.029Z,61.70
2022-07-27T23:38:16.145Z,61.60
2022-07-27T23:41:01.854Z,61.50
2022-07-27T23:43:47.139Z,61.90
2022-07-27T23:46:32.459Z,61.90
2022-07-27T23:49:17.777Z,61.90
2022-07-27T23:52:03.848Z,62.20
2022-07-27T23:54:48.975Z,62.20
2022-07-27T23:57:34.376Z,62.30
